Palm Springs, CA

11:53 AM PST on February 14, 2016 (GMT -0800)
Four Seasons | | Change Station
CLOSE
Current Station
Personal Weather Station
Location: Palm Springs, CA
Elevation: 564 ft
Nearby Weather Stations

Elev 564 ft 33.86 °N, 116.53 °W | Updated 0 second ago

Clear
Clear
86.7 °F
Feels Like 83 °F
N
4.5
Wind Variable Wind from SSW
Gusts 7.6 mph

Today
High -- | Low -- °F
--% Chance of Precip.
Yesterday
High -- | Low -- °F
Precip. -- in
Pressure 30.04 in
Visibility 10.0 miles
Clouds Clear
Heat Index 83 °F
Dew Point 24 °F
Humidity 10%
Rainfall 0.00 in
Snow Depth Not available.
6:32 AM 5:29 PM
Waxing Crescent, 44% visible
METAR KPSP 141853Z 00000KT 10SM CLR 29/M02 A3004 RMK AO2 SLP171 T02891017
Pressure 30.04 in
Visibility 10.0 miles
Clouds Clear
Heat Index 83 °F
Dew Point 24 °F
Humidity 10%
Rainfall 0.00 in
Snow Depth Not available.
6:32 AM 5:29 PM
Waxing Crescent, 44% visible
METAR KPSP 141853Z 00000KT 10SM CLR 29/M02 A3004 RMK AO2 SLP171 T02891017

10-Day Weather Forecast

Almanac

Astronomy

Feb. 14, 2016 Rise Set
Actual Time
Civil Twilight
Nautical Twilight
Astronomical Twilight
Moon
Length of Visible Light
Length of Day
Tomorrow will be .
, % of the Moon is Illuminated

Today's Extremes

State Highs State Lows

Community

WunderPhotos

Upload Photos

1,892,879 photos uploaded!

WunderBlog® & News

Nearby

Air Quality

  Air Quality AQ Index Pollutant
Not available.

Snow Depth

Station Depth Elevation

Earthquake Activity

City Distance Mag. Time & Date
Minimum magnitude displayed is 2.5.

Coastal Water Temperatures

Place Temperature

Stations

Nearby Weather Stations

Station Location Temp. Windchill Dew Point Humidity Wind Precip. Elev Updated Type
                   

Watches & Warnings

There are currently no watches in effect.